sensor_id;sensor_type;location;lat;lon;timestamp;P1;durP1;ratioP1;P2;durP2;ratioP2
4089;SDS011;2059;48.538;12.146;2022-09-01T00:01:31;21.20;;;18.97;;
4089;SDS011;2059;48.538;12.146;2022-09-01T00:06:36;17.30;;;15.60;;
4089;SDS011;2059;48.538;12.146;2022-09-01T00:11:40;17.90;;;16.10;;
4089;SDS011;2059;48.538;12.146;2022-09-01T00:16:44;20.40;;;14.83;;
4089;SDS011;2059;48.538;12.146;2022-09-01T00:21:47;17.47;;;15.83;;
4089;SDS011;2059;48.538;12.146;2022-09-01T00:26:49;17.43;;;15.63;;
4089;SDS011;2059;48.538;12.146;2022-09-01T00:31:51;21.13;;;15.50;;
4089;SDS011;2059;48.538;12.146;2022-09-01T00:36:55;18.30;;;16.50;;
4089;SDS011;2059;48.538;12.146;2022-09-01T00:41:57;18.37;;;16.67;;
4089;SDS011;2059;48.538;12.146;2022-09-01T00:46:58;18.47;;;16.57;;
4089;SDS011;2059;48.538;12.146;2022-09-01T00:52:03;18.80;;;16.83;;
4089;SDS011;2059;48.538;12.146;2022-09-01T00:57:07;18.63;;;16.73;;
4089;SDS011;2059;48.538;12.146;2022-09-01T01:02:11;18.43;;;16.53;;
4089;SDS011;2059;48.538;12.146;2022-09-01T01:07:14;19.47;;;17.47;;
4089;SDS011;2059;48.538;12.146;2022-09-01T01:12:17;17.50;;;15.80;;
4089;SDS011;2059;48.538;12.146;2022-09-01T01:17:20;19.63;;;17.67;;
4089;SDS011;2059;48.538;12.146;2022-09-01T01:22:26;18.77;;;16.97;;
4089;SDS011;2059;48.538;12.146;2022-09-01T01:27:54;21.50;;;18.97;;
4089;SDS011;2059;48.538;12.146;2022-09-01T01:33:04;19.63;;;17.73;;
4089;SDS011;2059;48.538;12.146;2022-09-01T01:38:07;20.33;;;18.13;;
4089;SDS011;2059;48.538;12.146;2022-09-01T01:43:10;22.53;;;20.20;;
4089;SDS011;2059;48.538;12.146;2022-09-01T01:48:22;24.63;;;21.90;;
4089;SDS011;2059;48.538;12.146;2022-09-01T01:53:23;22.03;;;19.70;;
4089;SDS011;2059;48.538;12.146;2022-09-01T01:58:27;20.70;;;18.70;;
4089;SDS011;2059;48.538;12.146;2022-09-01T02:03:30;19.10;;;17.20;;
4089;SDS011;2059;48.538;12.146;2022-09-01T02:08:37;21.40;;;19.37;;
4089;SDS011;2059;48.538;12.146;2022-09-01T02:13:41;25.60;;;20.20;;
4089;SDS011;2059;48.538;12.146;2022-09-01T02:18:45;20.87;;;18.63;;
4089;SDS011;2059;48.538;12.146;2022-09-01T02:23:50;19.60;;;17.60;;
4089;SDS011;2059;48.538;12.146;2022-09-01T02:28:58;19.00;;;17.30;;
4089;SDS011;2059;48.538;12.146;2022-09-01T02:34:04;18.13;;;16.20;;
4089;SDS011;2059;48.538;12.146;2022-09-01T02:39:09;19.60;;;17.63;;
4089;SDS011;2059;48.538;12.146;2022-09-01T02:44:13;17.67;;;15.97;;
4089;SDS011;2059;48.538;12.146;2022-09-01T02:49:16;18.47;;;16.60;;
4089;SDS011;2059;48.538;12.146;2022-09-01T02:54:24;18.10;;;16.30;;
4089;SDS011;2059;48.538;12.146;2022-09-01T02:59:28;17.30;;;15.57;;
4089;SDS011;2059;48.538;12.146;2022-09-01T03:04:31;17.97;;;16.27;;
4089;SDS011;2059;48.538;12.146;2022-09-01T03:09:33;14.93;;;13.50;;
4089;SDS011;2059;48.538;12.146;2022-09-01T03:14:37;14.70;;;13.40;;
4089;SDS011;2059;48.538;12.146;2022-09-01T03:19:38;16.10;;;14.60;;
4089;SDS011;2059;48.538;12.146;2022-09-01T03:24:44;15.80;;;14.40;;
4089;SDS011;2059;48.538;12.146;2022-09-01T03:29:47;15.57;;;14.00;;
4089;SDS011;2059;48.538;12.146;2022-09-01T03:34:49;15.33;;;13.93;;
4089;SDS011;2059;48.538;12.146;2022-09-01T03:39:51;16.10;;;14.60;;
4089;SDS011;2059;48.538;12.146;2022-09-01T03:44:55;14.60;;;13.20;;
4089;SDS011;2059;48.538;12.146;2022-09-01T03:49:57;15.17;;;13.60;;
4089;SDS011;2059;48.538;12.146;2022-09-01T03:54:59;14.87;;;13.47;;
4089;SDS011;2059;48.538;12.146;2022-09-01T04:00:02;14.97;;;13.57;;
4089;SDS011;2059;48.538;12.146;2022-09-01T04:05:19;13.00;;;11.90;;
4089;SDS011;2059;48.538;12.146;2022-09-01T04:10:24;17.03;;;15.47;;
4089;SDS011;2059;48.538;12.146;2022-09-01T04:15:28;15.73;;;14.33;;
4089;SDS011;2059;48.538;12.146;2022-09-01T04:20:31;15.80;;;14.30;;
4089;SDS011;2059;48.538;12.146;2022-09-01T04:25:47;15.57;;;14.07;;
4089;SDS011;2059;48.538;12.146;2022-09-01T04:30:52;14.90;;;13.50;;
4089;SDS011;2059;48.538;12.146;2022-09-01T04:35:56;16.40;;;14.70;;
4089;SDS011;2059;48.538;12.146;2022-09-01T04:41:01;14.70;;;13.30;;
4089;SDS011;2059;48.538;12.146;2022-09-01T04:46:06;15.93;;;14.33;;
4089;SDS011;2059;48.538;12.146;2022-09-01T04:51:10;17.13;;;15.43;;
4089;SDS011;2059;48.538;12.146;2022-09-01T04:56:12;17.10;;;15.33;;
4089;SDS011;2059;48.538;12.146;2022-09-01T05:01:19;16.20;;;14.70;;
4089;SDS011;2059;48.538;12.146;2022-09-01T05:06:22;17.93;;;15.90;;
4089;SDS011;2059;48.538;12.146;2022-09-01T05:11:24;16.33;;;14.83;;
4089;SDS011;2059;48.538;12.146;2022-09-01T05:16:28;17.10;;;14.67;;
4089;SDS011;2059;48.538;12.146;2022-09-01T05:21:30;17.70;;;16.00;;
4089;SDS011;2059;48.538;12.146;2022-09-01T05:26:31;18.00;;;16.00;;
4089;SDS011;2059;48.538;12.146;2022-09-01T05:31:35;16.80;;;15.10;;
4089;SDS011;2059;48.538;12.146;2022-09-01T05:36:40;16.13;;;14.63;;
4089;SDS011;2059;48.538;12.146;2022-09-01T05:41:45;17.30;;;15.63;;
4089;SDS011;2059;48.538;12.146;2022-09-01T05:46:49;18.13;;;16.20;;
4089;SDS011;2059;48.538;12.146;2022-09-01T05:51:52;19.40;;;17.40;;
4089;SDS011;2059;48.538;12.146;2022-09-01T05:56:57;21.80;;;19.60;;
4089;SDS011;2059;48.538;12.146;2022-09-01T06:02:02;21.27;;;18.93;;
4089;SDS011;2059;48.538;12.146;2022-09-01T06:07:10;24.80;;;21.73;;
4089;SDS011;2059;48.538;12.146;2022-09-01T06:12:13;23.73;;;18.93;;
4089;SDS011;2059;48.538;12.146;2022-09-01T06:17:24;20.70;;;18.60;;
4089;SDS011;2059;48.538;12.146;2022-09-01T06:46:17;15.77;;;14.17;;
4089;SDS011;2059;48.538;12.146;2022-09-01T06:51:21;17.13;;;14.90;;
4089;SDS011;2059;48.538;12.146;2022-09-01T06:56:24;15.50;;;14.00;;
4089;SDS011;2059;48.538;12.146;2022-09-01T07:01:30;16.23;;;14.77;;
4089;SDS011;2059;48.538;12.146;2022-09-01T07:06:33;14.77;;;13.27;;
4089;SDS011;2059;48.538;12.146;2022-09-01T07:11:35;12.70;;;11.40;;
4089;SDS011;2059;48.538;12.146;2022-09-01T07:16:38;14.30;;;10.70;;
4089;SDS011;2059;48.538;12.146;2022-09-01T07:21:41;20.37;;;11.70;;
4089;SDS011;2059;48.538;12.146;2022-09-01T07:26:44;13.20;;;12.00;;
4089;SDS011;2059;48.538;12.146;2022-09-01T07:31:50;12.03;;;10.93;;
4089;SDS011;2059;48.538;12.146;2022-09-01T07:36:54;10.30;;;9.40;;
4089;SDS011;2059;48.538;12.146;2022-09-01T07:41:59;28.17;;;9.77;;
4089;SDS011;2059;48.538;12.146;2022-09-01T07:47:09;23.07;;;9.20;;
4089;SDS011;2059;48.538;12.146;2022-09-01T07:52:13;9.10;;;7.73;;
4089;SDS011;2059;48.538;12.146;2022-09-01T07:57:17;8.10;;;7.40;;
4089;SDS011;2059;48.538;12.146;2022-09-01T08:02:20;8.10;;;7.50;;
4089;SDS011;2059;48.538;12.146;2022-09-01T08:07:23;7.87;;;7.27;;
4089;SDS011;2059;48.538;12.146;2022-09-01T08:12:25;10.47;;;9.57;;
4089;SDS011;2059;48.538;12.146;2022-09-01T08:17:28;8.40;;;7.80;;
4089;SDS011;2059;48.538;12.146;2022-09-01T08:22:30;10.83;;;9.93;;
4089;SDS011;2059;48.538;12.146;2022-09-01T08:27:33;8.50;;;7.90;;
4089;SDS011;2059;48.538;12.146;2022-09-01T08:32:39;6.57;;;6.07;;
4089;SDS011;2059;48.538;12.146;2022-09-01T08:37:42;6.77;;;6.20;;
4089;SDS011;2059;48.538;12.146;2022-09-01T08:42:48;6.90;;;6.43;;
4089;SDS011;2059;48.538;12.146;2022-09-01T08:47:58;5.80;;;5.50;;
4089;SDS011;2059;48.538;12.146;2022-09-01T08:53:08;7.10;;;6.50;;
4089;SDS011;2059;48.538;12.146;2022-09-01T08:58:21;8.30;;;7.70;;
4089;SDS011;2059;48.538;12.146;2022-09-01T09:03:29;8.20;;;7.70;;
4089;SDS011;2059;48.538;12.146;2022-09-01T09:08:43;10.97;;;8.60;;
4089;SDS011;2059;48.538;12.146;2022-09-01T09:13:59;6.37;;;5.97;;
4089;SDS011;2059;48.538;12.146;2022-09-01T09:19:12;8.60;;;8.00;;
4089;SDS011;2059;48.538;12.146;2022-09-01T09:24:19;8.53;;;7.83;;
4089;SDS011;2059;48.538;12.146;2022-09-01T09:29:26;5.70;;;5.23;;
4089;SDS011;2059;48.538;12.146;2022-09-01T09:34:31;6.80;;;5.93;;
4089;SDS011;2059;48.538;12.146;2022-09-01T09:39:34;7.40;;;7.00;;
4089;SDS011;2059;48.538;12.146;2022-09-01T09:44:39;5.40;;;5.10;;
4089;SDS011;2059;48.538;12.146;2022-09-01T09:49:45;30.33;;;8.87;;
4089;SDS011;2059;48.538;12.146;2022-09-01T09:54:58;8.00;;;7.50;;
4089;SDS011;2059;48.538;12.146;2022-09-01T10:00:05;8.83;;;8.13;;
4089;SDS011;2059;48.538;12.146;2022-09-01T10:05:24;54.17;;;12.63;;
4089;SDS011;2059;48.538;12.146;2022-09-01T10:10:30;7.60;;;7.20;;
4089;SDS011;2059;48.538;12.146;2022-09-01T10:15:38;8.37;;;7.63;;
4089;SDS011;2059;48.538;12.146;2022-09-01T10:20:44;7.70;;;7.20;;
4089;SDS011;2059;48.538;12.146;2022-09-01T10:25:52;8.13;;;7.43;;
4089;SDS011;2059;48.538;12.146;2022-09-01T10:31:03;7.47;;;6.97;;
4089;SDS011;2059;48.538;12.146;2022-09-01T10:36:06;7.87;;;7.27;;
4089;SDS011;2059;48.538;12.146;2022-09-01T10:41:09;7.43;;;7.03;;
4089;SDS011;2059;48.538;12.146;2022-09-01T10:46:44;21.80;;;7.97;;
4089;SDS011;2059;48.538;12.146;2022-09-01T10:51:48;7.70;;;7.10;;
4089;SDS011;2059;48.538;12.146;2022-09-01T10:56:51;9.53;;;7.00;;
4089;SDS011;2059;48.538;12.146;2022-09-01T11:02:04;7.40;;;7.00;;
4089;SDS011;2059;48.538;12.146;2022-09-01T11:12:40;7.57;;;7.10;;
4089;SDS011;2059;48.538;12.146;2022-09-01T11:17:53;61.33;;;9.77;;
4089;SDS011;2059;48.538;12.146;2022-09-01T11:22:59;7.60;;;7.00;;
4089;SDS011;2059;48.538;12.146;2022-09-01T11:28:07;7.37;;;6.70;;
4089;SDS011;2059;48.538;12.146;2022-09-01T11:33:15;7.53;;;7.07;;
4089;SDS011;2059;48.538;12.146;2022-09-01T11:38:31;26.53;;;8.83;;
4089;SDS011;2059;48.538;12.146;2022-09-01T11:43:42;7.50;;;6.97;;
4089;SDS011;2059;48.538;12.146;2022-09-01T11:48:44;7.27;;;6.77;;
4089;SDS011;2059;48.538;12.146;2022-09-01T11:53:48;7.17;;;6.57;;
4089;SDS011;2059;48.538;12.146;2022-09-01T11:58:58;7.40;;;6.90;;
4089;SDS011;2059;48.538;12.146;2022-09-01T12:04:16;7.40;;;6.90;;
4089;SDS011;2059;48.538;12.146;2022-09-01T12:09:22;6.13;;;4.70;;
4089;SDS011;2059;48.538;12.146;2022-09-01T12:14:33;4.93;;;4.63;;
4089;SDS011;2059;48.538;12.146;2022-09-01T12:19:35;9.10;;;5.13;;
4089;SDS011;2059;48.538;12.146;2022-09-01T12:24:43;4.83;;;4.53;;
4089;SDS011;2059;48.538;12.146;2022-09-01T12:29:47;5.77;;;5.47;;
4089;SDS011;2059;48.538;12.146;2022-09-01T12:34:58;4.90;;;4.60;;
4089;SDS011;2059;48.538;12.146;2022-09-01T12:40:03;4.90;;;4.60;;
4089;SDS011;2059;48.538;12.146;2022-09-01T12:45:06;7.17;;;5.67;;
4089;SDS011;2059;48.538;12.146;2022-09-01T12:55:59;6.63;;;6.23;;
4089;SDS011;2059;48.538;12.146;2022-09-01T13:01:25;6.60;;;5.97;;
4089;SDS011;2059;48.538;12.146;2022-09-01T13:06:28;4.93;;;4.67;;
4089;SDS011;2059;48.538;12.146;2022-09-01T13:11:31;5.57;;;5.17;;
4089;SDS011;2059;48.538;12.146;2022-09-01T13:16:34;5.87;;;5.43;;
4089;SDS011;2059;48.538;12.146;2022-09-01T13:21:36;7.63;;;7.00;;
4089;SDS011;2059;48.538;12.146;2022-09-01T13:26:40;6.23;;;5.87;;
4089;SDS011;2059;48.538;12.146;2022-09-01T13:31:42;4.63;;;4.33;;
4089;SDS011;2059;48.538;12.146;2022-09-01T13:36:44;5.50;;;4.70;;
4089;SDS011;2059;48.538;12.146;2022-09-01T13:41:47;4.53;;;4.33;;
4089;SDS011;2059;48.538;12.146;2022-09-01T13:46:49;4.30;;;4.10;;
4089;SDS011;2059;48.538;12.146;2022-09-01T13:51:51;7.17;;;4.17;;
4089;SDS011;2059;48.538;12.146;2022-09-01T13:56:55;4.67;;;4.30;;
4089;SDS011;2059;48.538;12.146;2022-09-01T14:01:58;6.80;;;6.30;;
4089;SDS011;2059;48.538;12.146;2022-09-01T14:07:00;4.67;;;4.37;;
4089;SDS011;2059;48.538;12.146;2022-09-01T14:12:04;4.60;;;4.20;;
4089;SDS011;2059;48.538;12.146;2022-09-01T14:17:06;4.53;;;4.33;;
4089;SDS011;2059;48.538;12.146;2022-09-01T14:22:08;4.60;;;4.30;;
4089;SDS011;2059;48.538;12.146;2022-09-01T14:27:11;3.73;;;3.53;;
4089;SDS011;2059;48.538;12.146;2022-09-01T14:32:13;4.70;;;4.30;;
4089;SDS011;2059;48.538;12.146;2022-09-01T14:37:16;4.37;;;4.07;;
4089;SDS011;2059;48.538;12.146;2022-09-01T14:42:19;4.50;;;4.30;;
4089;SDS011;2059;48.538;12.146;2022-09-01T14:47:23;3.87;;;3.60;;
4089;SDS011;2059;48.538;12.146;2022-09-01T14:52:25;4.10;;;3.90;;
4089;SDS011;2059;48.538;12.146;2022-09-01T14:57:28;4.03;;;3.73;;
4089;SDS011;2059;48.538;12.146;2022-09-01T15:02:31;4.23;;;3.93;;
4089;SDS011;2059;48.538;12.146;2022-09-01T15:07:32;4.00;;;3.80;;
4089;SDS011;2059;48.538;12.146;2022-09-01T15:12:36;4.10;;;3.90;;
4089;SDS011;2059;48.538;12.146;2022-09-01T15:17:38;4.20;;;4.00;;
4089;SDS011;2059;48.538;12.146;2022-09-01T15:22:40;4.07;;;3.87;;
4089;SDS011;2059;48.538;12.146;2022-09-01T15:27:44;3.70;;;3.50;;
4089;SDS011;2059;48.538;12.146;2022-09-01T15:32:46;4.17;;;3.87;;
4089;SDS011;2059;48.538;12.146;2022-09-01T15:37:50;4.17;;;3.83;;
4089;SDS011;2059;48.538;12.146;2022-09-01T15:42:54;3.90;;;3.70;;
4089;SDS011;2059;48.538;12.146;2022-09-01T15:47:57;6.03;;;3.80;;
4089;SDS011;2059;48.538;12.146;2022-09-01T15:53:00;4.90;;;3.43;;
4089;SDS011;2059;48.538;12.146;2022-09-01T15:58:09;4.37;;;4.03;;
4089;SDS011;2059;48.538;12.146;2022-09-01T16:03:12;5.40;;;5.10;;
4089;SDS011;2059;48.538;12.146;2022-09-01T16:08:15;3.97;;;3.77;;
4089;SDS011;2059;48.538;12.146;2022-09-01T16:13:20;4.17;;;3.90;;
4089;SDS011;2059;48.538;12.146;2022-09-01T16:18:27;3.87;;;3.67;;
4089;SDS011;2059;48.538;12.146;2022-09-01T16:23:41;4.50;;;4.00;;
4089;SDS011;2059;48.538;12.146;2022-09-01T16:28:48;6.10;;;3.93;;
4089;SDS011;2059;48.538;12.146;2022-09-01T16:33:52;4.37;;;3.97;;
4089;SDS011;2059;48.538;12.146;2022-09-01T16:38:58;3.77;;;3.47;;
4089;SDS011;2059;48.538;12.146;2022-09-01T16:44:14;4.30;;;4.00;;
4089;SDS011;2059;48.538;12.146;2022-09-01T16:49:24;4.17;;;3.87;;
4089;SDS011;2059;48.538;12.146;2022-09-01T16:54:36;4.20;;;4.00;;
4089;SDS011;2059;48.538;12.146;2022-09-01T16:59:49;4.80;;;4.50;;
4089;SDS011;2059;48.538;12.146;2022-09-01T17:04:56;4.20;;;3.80;;
4089;SDS011;2059;48.538;12.146;2022-09-01T17:10:03;4.17;;;3.70;;
4089;SDS011;2059;48.538;12.146;2022-09-01T17:15:14;3.80;;;3.50;;
4089;SDS011;2059;48.538;12.146;2022-09-01T17:20:17;4.53;;;4.27;;
4089;SDS011;2059;48.538;12.146;2022-09-01T17:25:26;3.90;;;3.70;;
4089;SDS011;2059;48.538;12.146;2022-09-01T17:30:33;4.13;;;3.83;;
4089;SDS011;2059;48.538;12.146;2022-09-01T17:35:44;11.40;;;4.40;;
4089;SDS011;2059;48.538;12.146;2022-09-01T17:41:01;4.40;;;4.10;;
4089;SDS011;2059;48.538;12.146;2022-09-01T17:46:14;5.00;;;4.50;;
4089;SDS011;2059;48.538;12.146;2022-09-01T17:51:27;7.70;;;4.87;;
4089;SDS011;2059;48.538;12.146;2022-09-01T17:56:39;5.80;;;4.00;;
4089;SDS011;2059;48.538;12.146;2022-09-01T18:01:51;4.60;;;4.30;;
4089;SDS011;2059;48.538;12.146;2022-09-01T18:07:02;5.27;;;3.73;;
4089;SDS011;2059;48.538;12.146;2022-09-01T18:12:12;15.03;;;4.10;;
4089;SDS011;2059;48.538;12.146;2022-09-01T18:17:21;4.03;;;3.80;;
4089;SDS011;2059;48.538;12.146;2022-09-01T18:22:29;6.40;;;3.50;;
4089;SDS011;2059;48.538;12.146;2022-09-01T18:27:37;3.97;;;3.70;;
4089;SDS011;2059;48.538;12.146;2022-09-01T18:32:45;3.30;;;3.10;;
4089;SDS011;2059;48.538;12.146;2022-09-01T18:43:21;3.70;;;3.50;;
4089;SDS011;2059;48.538;12.146;2022-09-01T18:48:45;4.83;;;4.60;;
4089;SDS011;2059;48.538;12.146;2022-09-01T18:53:54;4.90;;;4.60;;
4089;SDS011;2059;48.538;12.146;2022-09-01T18:59:04;4.03;;;3.73;;
4089;SDS011;2059;48.538;12.146;2022-09-01T19:04:18;3.40;;;3.30;;
4089;SDS011;2059;48.538;12.146;2022-09-01T19:09:27;8.13;;;4.80;;
4089;SDS011;2059;48.538;12.146;2022-09-01T19:14:32;5.80;;;5.23;;
4089;SDS011;2059;48.538;12.146;2022-09-01T19:19:41;5.30;;;4.53;;
4089;SDS011;2059;48.538;12.146;2022-09-01T19:24:48;3.90;;;3.70;;
4089;SDS011;2059;48.538;12.146;2022-09-01T19:30:13;4.57;;;3.67;;
4089;SDS011;2059;48.538;12.146;2022-09-01T19:35:19;4.37;;;3.97;;
4089;SDS011;2059;48.538;12.146;2022-09-01T19:40:22;4.30;;;4.00;;
4089;SDS011;2059;48.538;12.146;2022-09-01T19:45:33;4.20;;;3.80;;
4089;SDS011;2059;48.538;12.146;2022-09-01T19:50:46;4.00;;;3.80;;
4089;SDS011;2059;48.538;12.146;2022-09-01T19:55:53;4.13;;;3.90;;
4089;SDS011;2059;48.538;12.146;2022-09-01T20:01:02;3.90;;;3.70;;
4089;SDS011;2059;48.538;12.146;2022-09-01T20:06:11;4.67;;;3.90;;
4089;SDS011;2059;48.538;12.146;2022-09-01T20:11:19;4.17;;;3.87;;
4089;SDS011;2059;48.538;12.146;2022-09-01T20:16:39;5.57;;;3.90;;
4089;SDS011;2059;48.538;12.146;2022-09-01T20:21:46;4.50;;;4.10;;
4089;SDS011;2059;48.538;12.146;2022-09-01T20:26:51;5.63;;;5.33;;
4089;SDS011;2059;48.538;12.146;2022-09-01T20:31:59;4.93;;;4.23;;
4089;SDS011;2059;48.538;12.146;2022-09-01T20:37:05;4.43;;;4.13;;
4089;SDS011;2059;48.538;12.146;2022-09-01T20:42:11;7.60;;;7.00;;
4089;SDS011;2059;48.538;12.146;2022-09-01T20:47:18;5.20;;;4.80;;
4089;SDS011;2059;48.538;12.146;2022-09-01T20:52:25;4.60;;;4.30;;
4089;SDS011;2059;48.538;12.146;2022-09-01T20:57:43;4.50;;;4.10;;
4089;SDS011;2059;48.538;12.146;2022-09-01T21:02:59;4.93;;;4.63;;
4089;SDS011;2059;48.538;12.146;2022-09-01T21:08:18;5.33;;;4.83;;
4089;SDS011;2059;48.538;12.146;2022-09-01T21:13:39;5.03;;;4.73;;
4089;SDS011;2059;48.538;12.146;2022-09-01T21:18:51;4.90;;;4.60;;
4089;SDS011;2059;48.538;12.146;2022-09-01T21:24:04;5.33;;;4.83;;
4089;SDS011;2059;48.538;12.146;2022-09-01T21:29:12;7.20;;;6.33;;
4089;SDS011;2059;48.538;12.146;2022-09-01T21:34:23;5.50;;;5.10;;
4089;SDS011;2059;48.538;12.146;2022-09-01T21:39:26;6.10;;;5.60;;
4089;SDS011;2059;48.538;12.146;2022-09-01T21:44:28;5.30;;;4.80;;
4089;SDS011;2059;48.538;12.146;2022-09-01T21:49:30;5.17;;;4.77;;
4089;SDS011;2059;48.538;12.146;2022-09-01T21:54:34;5.63;;;5.13;;
4089;SDS011;2059;48.538;12.146;2022-09-01T21:59:36;6.20;;;5.70;;
4089;SDS011;2059;48.538;12.146;2022-09-01T22:04:38;5.67;;;5.20;;
4089;SDS011;2059;48.538;12.146;2022-09-01T22:09:41;5.67;;;5.27;;
4089;SDS011;2059;48.538;12.146;2022-09-01T22:14:43;5.63;;;5.23;;
4089;SDS011;2059;48.538;12.146;2022-09-01T22:19:45;5.30;;;4.90;;
4089;SDS011;2059;48.538;12.146;2022-09-01T22:24:49;12.33;;;7.80;;
4089;SDS011;2059;48.538;12.146;2022-09-01T22:29:50;9.07;;;8.17;;
4089;SDS011;2059;48.538;12.146;2022-09-01T22:34:52;4.93;;;4.63;;
4089;SDS011;2059;48.538;12.146;2022-09-01T22:39:56;6.40;;;5.90;;
4089;SDS011;2059;48.538;12.146;2022-09-01T22:44:57;5.23;;;4.70;;
4089;SDS011;2059;48.538;12.146;2022-09-01T22:49:59;5.97;;;5.47;;
4089;SDS011;2059;48.538;12.146;2022-09-01T22:55:03;5.70;;;5.30;;
4089;SDS011;2059;48.538;12.146;2022-09-01T23:00:07;6.23;;;5.83;;
4089;SDS011;2059;48.538;12.146;2022-09-01T23:05:10;6.27;;;5.77;;
4089;SDS011;2059;48.538;12.146;2022-09-01T23:10:13;7.60;;;6.90;;
4089;SDS011;2059;48.538;12.146;2022-09-01T23:15:15;7.60;;;7.00;;
4089;SDS011;2059;48.538;12.146;2022-09-01T23:20:17;7.20;;;6.80;;
4089;SDS011;2059;48.538;12.146;2022-09-01T23:25:21;6.10;;;5.10;;
4089;SDS011;2059;48.538;12.146;2022-09-01T23:30:23;6.07;;;5.53;;
4089;SDS011;2059;48.538;12.146;2022-09-01T23:35:25;5.77;;;5.27;;
4089;SDS011;2059;48.538;12.146;2022-09-01T23:40:28;7.33;;;6.83;;
4089;SDS011;2059;48.538;12.146;2022-09-01T23:45:30;15.17;;;5.47;;
4089;SDS011;2059;48.538;12.146;2022-09-01T23:50:31;28.57;;;6.27;;
4089;SDS011;2059;48.538;12.146;2022-09-01T23:55:41;6.03;;;5.30;;
